createdAt,value
2023-02-05T00:00:31.402Z,5.57
2023-02-05T00:02:59.724Z,3.58
2023-02-05T00:05:28.092Z,2.85
2023-02-05T00:07:56.183Z,3.58
2023-02-05T00:10:24.450Z,3.25
2023-02-05T00:12:54.062Z,5.13
2023-02-05T00:15:22.403Z,4.35
2023-02-05T00:17:50.619Z,5.75
2023-02-05T00:20:19.346Z,4.72
2023-02-05T00:22:47.556Z,6.20
2023-02-05T00:25:15.689Z,6.20
2023-02-05T00:27:43.955Z,4.10
2023-02-05T00:30:14.645Z,4.63
2023-02-05T00:32:42.820Z,4.70
2023-02-05T00:35:11.246Z,3.53
2023-02-05T00:37:39.509Z,4.53
2023-02-05T00:40:08.465Z,5.93
2023-02-05T00:42:36.704Z,3.35
2023-02-05T00:45:05.312Z,3.30
2023-02-05T00:47:35.007Z,3.85
2023-02-05T00:50:03.176Z,4.72
2023-02-05T00:52:31.303Z,4.10
2023-02-05T00:54:59.831Z,5.15
2023-02-05T00:57:28.183Z,3.45
2023-02-05T00:59:56.408Z,2.47
2023-02-05T01:02:25.345Z,3.67
2023-02-05T01:04:55.341Z,4.28
2023-02-05T01:07:23.589Z,4.20
2023-02-05T01:09:51.692Z,4.72
2023-02-05T01:12:19.850Z,5.95
2023-02-05T01:14:48.078Z,2.75
2023-02-05T01:17:16.258Z,7.97
2023-02-05T01:19:44.681Z,5.97
2023-02-05T01:22:14.273Z,2.72
2023-02-05T01:24:42.860Z,4.30
2023-02-05T01:27:11.824Z,6.20
2023-02-05T01:29:40.539Z,3.83
2023-02-05T01:32:08.852Z,4.18
2023-02-05T01:34:37.441Z,3.53
2023-02-05T01:37:05.576Z,4.97
2023-02-05T01:39:36.397Z,7.13
2023-02-05T01:42:04.964Z,4.47
2023-02-05T01:44:33.212Z,5.47
2023-02-05T01:47:01.588Z,5.82
2023-02-05T01:49:34.110Z,8.05
2023-02-05T01:52:08.294Z,6.82
2023-02-05T01:54:40.739Z,3.83
2023-02-05T01:57:12.576Z,6.35
2023-02-05T01:59:42.800Z,6.35
2023-02-05T02:02:11.451Z,3.83
2023-02-05T02:04:46.203Z,4.07
2023-02-05T02:07:17.514Z,5.85
2023-02-05T02:09:49.575Z,7.78
2023-02-05T02:12:22.280Z,4.90
2023-02-05T02:14:54.120Z,5.53
2023-02-05T02:17:23.170Z,3.58
2023-02-05T02:20:00.290Z,8.95
2023-02-05T02:22:49.784Z,6.03
2023-02-05T02:26:08.878Z,6.32
2023-02-05T02:28:44.923Z,5.30
2023-02-05T02:33:47.857Z,7.93
2023-02-05T02:36:21.511Z,4.10
2023-02-05T02:38:56.504Z,6.30
2023-02-05T02:41:29.677Z,4.93
2023-02-05T02:44:01.069Z,6.25
2023-02-05T02:46:32.055Z,5.30
2023-02-05T02:49:06.634Z,4.55
2023-02-05T02:51:39.797Z,5.10
2023-02-05T02:54:13.902Z,3.92
2023-02-05T02:56:43.216Z,6.68
2023-02-05T02:59:16.794Z,5.85
2023-02-05T03:01:53.758Z,5.75
2023-02-05T03:04:27.545Z,5.07
2023-02-05T03:07:00.840Z,9.13
2023-02-05T03:09:35.785Z,6.97
2023-02-05T03:12:04.028Z,5.35
2023-02-05T03:14:34.328Z,4.18
2023-02-05T03:17:03.368Z,6.22
2023-02-05T03:19:32.912Z,5.90
2023-02-05T03:22:03.972Z,5.40
2023-02-05T03:24:32.645Z,6.53
2023-02-05T03:27:01.064Z,3.88
2023-02-05T03:29:32.128Z,5.20
2023-02-05T03:32:23.070Z,6.10
2023-02-05T03:35:11.632Z,4.03
2023-02-05T03:37:53.095Z,9.02
2023-02-05T03:40:30.309Z,7.95
2023-02-05T03:43:08.211Z,5.60
2023-02-05T03:45:49.525Z,4.45
2023-02-05T03:48:40.134Z,3.67
2023-02-05T03:51:20.328Z,3.72
2023-02-05T03:53:59.745Z,5.53
2023-02-05T03:56:32.732Z,6.25
2023-02-05T03:59:03.314Z,6.78
2023-02-05T04:01:32.710Z,10.40
2023-02-05T04:04:02.224Z,5.25
2023-02-05T04:06:31.092Z,5.53
2023-02-05T04:08:59.222Z,6.60
2023-02-05T04:11:27.858Z,3.95
2023-02-05T04:13:56.451Z,6.18
2023-02-05T04:16:24.965Z,3.10
2023-02-05T04:18:53.257Z,6.47
2023-02-05T04:21:23.671Z,5.28
2023-02-05T04:23:52.005Z,4.72
2023-02-05T04:26:20.773Z,3.90
2023-02-05T04:28:59.165Z,7.97
2023-02-05T04:31:28.898Z,4.15
2023-02-05T04:33:58.002Z,4.40
2023-02-05T04:36:27.792Z,3.97
2023-02-05T04:38:56.060Z,5.90
2023-02-05T04:41:24.698Z,7.65
2023-02-05T04:43:52.900Z,4.57
2023-02-05T04:46:21.000Z,5.55
2023-02-05T04:48:49.297Z,4.85
2023-02-05T04:51:17.482Z,4.13
2023-02-05T04:53:47.030Z,5.65
2023-02-05T04:56:17.509Z,5.53
2023-02-05T04:58:46.289Z,5.45
2023-02-05T05:01:15.461Z,5.43
2023-02-05T05:03:44.520Z,5.93
2023-02-05T05:06:13.558Z,4.82
2023-02-05T05:08:42.098Z,5.55
2023-02-05T05:11:13.407Z,3.20
2023-02-05T05:13:41.925Z,4.93
2023-02-05T05:16:11.685Z,5.75
2023-02-05T05:18:40.946Z,4.78
2023-02-05T05:21:09.428Z,6.65
2023-02-05T05:23:38.390Z,6.65
2023-02-05T05:26:07.478Z,5.95
2023-02-05T05:28:37.562Z,10.18
2023-02-05T05:31:10.833Z,9.50
2023-02-05T05:33:39.287Z,7.13
2023-02-05T05:36:09.026Z,6.53
2023-02-05T05:38:37.266Z,8.35
2023-02-05T05:41:24.082Z,4.47
2023-02-05T05:43:56.040Z,3.10
2023-02-05T05:46:26.329Z,6.20
2023-02-05T05:49:00.272Z,5.00
2023-02-05T05:51:30.443Z,6.65
2023-02-05T05:53:58.876Z,4.60
2023-02-05T05:56:27.252Z,3.05
2023-02-05T05:58:56.970Z,4.07
2023-02-05T06:01:25.130Z,7.93
2023-02-05T06:03:53.383Z,7.63
2023-02-05T06:06:21.563Z,4.90
2023-02-05T06:08:49.682Z,7.28
2023-02-05T06:11:23.849Z,3.22
2023-02-05T06:13:52.024Z,5.25
2023-02-05T06:16:21.656Z,4.47
2023-02-05T06:18:49.986Z,3.53
2023-02-05T06:21:18.141Z,7.28
2023-02-05T06:23:50.833Z,18.27
2023-02-05T06:26:19.817Z,6.68
2023-02-05T06:28:48.008Z,7.82
2023-02-05T06:31:17.519Z,3.55
2023-02-05T06:33:47.493Z,1.63
2023-02-05T06:36:15.702Z,6.32
2023-02-05T06:38:43.857Z,1.50
2023-02-05T06:41:12.004Z,3.80
2023-02-05T06:43:40.230Z,5.10
2023-02-05T06:46:08.460Z,4.95
2023-02-05T06:48:36.707Z,4.03
2023-02-05T06:51:06.942Z,7.05
2023-02-05T06:53:35.147Z,8.23
2023-02-05T06:56:03.304Z,11.98
2023-02-05T06:58:31.490Z,8.57
2023-02-05T07:01:00.799Z,8.57
2023-02-05T07:03:33.062Z,6.10
2023-02-05T07:06:07.478Z,4.97
2023-02-05T07:08:36.503Z,5.25
2023-02-05T07:11:04.970Z,5.78
2023-02-05T07:13:33.230Z,4.05
2023-02-05T07:16:06.475Z,6.75
2023-02-05T07:18:45.866Z,6.72
2023-02-05T07:21:17.291Z,4.68
2023-02-05T07:23:45.729Z,7.68
2023-02-05T07:26:16.443Z,3.15
2023-02-05T07:28:46.858Z,4.88
2023-02-05T07:31:17.147Z,5.18
2023-02-05T07:33:47.950Z,5.78
2023-02-05T07:36:19.701Z,3.45
2023-02-05T07:38:51.554Z,6.50
2023-02-05T07:41:19.940Z,5.93
2023-02-05T07:43:52.382Z,2.40
2023-02-05T07:46:21.823Z,6.45
2023-02-05T07:48:50.641Z,2.30
2023-02-05T07:51:24.285Z,1.05
2023-02-05T07:53:54.167Z,3.80
2023-02-05T07:56:24.918Z,2.40
2023-02-05T07:58:53.618Z,5.35
2023-02-05T08:01:50.947Z,5.22
2023-02-05T08:04:50.012Z,1.67
2023-02-05T08:07:20.557Z,5.25
2023-02-05T08:09:49.806Z,4.43
2023-02-05T08:12:47.104Z,2.22
2023-02-05T08:16:08.329Z,3.83
2023-02-05T08:23:05.332Z,6.55
2023-02-05T08:25:39.060Z,4.30
2023-02-05T08:28:59.703Z,6.25
2023-02-05T08:31:56.000Z,4.05
2023-02-05T08:34:34.247Z,3.40
2023-02-05T08:37:30.003Z,12.02
2023-02-05T08:40:17.469Z,4.15
2023-02-05T08:43:12.714Z,2.25
2023-02-05T08:45:47.211Z,3.38
2023-02-05T08:48:15.759Z,2.72
2023-02-05T08:51:05.136Z,2.83
2023-02-05T08:53:34.180Z,3.75
2023-02-05T08:56:06.482Z,2.35
2023-02-05T08:58:38.927Z,5.05
2023-02-05T09:01:25.556Z,2.53
2023-02-05T09:04:20.657Z,4.10
2023-02-05T09:06:53.533Z,4.88
2023-02-05T09:09:22.097Z,3.65
2023-02-05T09:11:58.909Z,4.75
2023-02-05T09:14:36.500Z,5.43
2023-02-05T09:17:05.167Z,2.75
2023-02-05T09:20:03.628Z,3.70
2023-02-05T09:22:33.743Z,2.85
2023-02-05T09:25:01.919Z,2.13
2023-02-05T09:27:34.412Z,2.53
2023-02-05T09:30:02.718Z,3.22
2023-02-05T09:32:31.881Z,2.15
2023-02-05T09:38:47.300Z,2.50
2023-02-05T09:41:27.743Z,4.38
2023-02-05T09:44:16.852Z,5.63
2023-02-05T09:46:51.664Z,4.05
2023-02-05T09:49:29.740Z,3.72
2023-02-05T09:52:52.190Z,4.72
2023-02-05T09:55:47.500Z,2.33
2023-02-05T09:58:19.590Z,3.63
2023-02-05T10:00:59.016Z,3.03
2023-02-05T10:03:33.337Z,3.63
2023-02-05T10:10:51.055Z,3.40
2023-02-05T10:13:54.468Z,2.35
2023-02-05T10:25:22.418Z,0.93
2023-02-05T10:28:03.581Z,2.83
2023-02-05T10:30:52.327Z,3.03
2023-02-05T10:34:21.491Z,5.75
2023-02-05T10:41:21.845Z,2.53
2023-02-05T10:48:27.228Z,2.85
2023-02-05T10:55:20.606Z,3.40
2023-02-05T11:02:13.198Z,4.63
2023-02-05T11:09:32.017Z,0.80
2023-02-05T11:16:19.176Z,2.67
2023-02-05T11:18:56.247Z,2.22
2023-02-05T11:21:48.379Z,4.03
2023-02-05T11:24:32.429Z,2.83
2023-02-05T11:31:19.617Z,3.35
2023-02-05T11:34:39.050Z,1.45
2023-02-05T11:37:07.436Z,3.80
2023-02-05T11:43:56.174Z,5.57
2023-02-05T11:50:47.611Z,4.75
2023-02-05T11:57:39.079Z,4.50
2023-02-05T12:01:20.896Z,5.22
2023-02-05T12:04:18.822Z,3.92
2023-02-05T12:11:07.117Z,3.20
2023-02-05T12:14:29.050Z,4.30
2023-02-05T12:17:30.841Z,4.07
2023-02-05T12:24:48.780Z,6.47
2023-02-05T12:31:55.519Z,5.13
2023-02-05T12:38:49.430Z,3.42
2023-02-05T12:42:11.810Z,5.03
2023-02-05T12:49:21.944Z,2.40
2023-02-05T12:52:16.909Z,3.03
2023-02-05T12:59:10.169Z,4.25
2023-02-05T13:07:13.951Z,2.65
2023-02-05T13:14:21.876Z,2.30
2023-02-05T13:26:02.728Z,8.48
2023-02-05T13:29:07.554Z,2.58
2023-02-05T13:36:16.984Z,2.95
2023-02-05T13:43:26.276Z,3.03
2023-02-05T13:50:47.106Z,3.50
2023-02-05T14:01:57.995Z,3.67
2023-02-05T14:04:29.523Z,5.05
2023-02-05T14:11:15.504Z,4.28
2023-02-05T14:18:04.211Z,4.68
2023-02-05T14:24:51.830Z,3.72
2023-02-05T14:31:55.463Z,5.95
2023-02-05T14:35:37.566Z,4.40
2023-02-05T14:51:04.925Z,15.02
2023-02-05T14:58:03.184Z,4.15
2023-02-05T15:04:54.578Z,8.13
2023-02-05T15:12:04.735Z,3.33
2023-02-05T15:18:30.999Z,4.10
2023-02-05T15:25:39.965Z,11.35
2023-02-05T15:32:26.826Z,19.30
2023-02-05T15:39:26.212Z,5.25
2023-02-05T15:46:18.246Z,4.65
2023-02-05T15:53:26.014Z,14.32
2023-02-05T16:00:22.548Z,20.77
2023-02-05T16:11:49.763Z,14.68
2023-02-05T16:18:50.353Z,9.68
2023-02-05T16:25:43.757Z,10.50
2023-02-05T16:29:07.778Z,9.00
2023-02-05T16:36:07.418Z,10.52
2023-02-05T16:38:53.813Z,5.22
2023-02-05T16:45:34.244Z,9.20
2023-02-05T16:49:01.130Z,12.02
2023-02-05T16:56:12.842Z,20.93
2023-02-05T16:58:49.840Z,12.75
2023-02-05T17:01:38.712Z,16.67
2023-02-05T17:04:35.247Z,29.02
2023-02-05T17:07:30.052Z,14.15
2023-02-05T17:10:18.371Z,11.52
2023-02-05T17:12:59.384Z,10.25
2023-02-05T17:19:39.954Z,13.35
2023-02-05T17:22:28.104Z,16.27
2023-02-05T17:25:22.923Z,14.13
2023-02-05T17:27:58.475Z,12.35
2023-02-05T17:30:30.099Z,17.02
2023-02-05T17:32:58.696Z,7.03
2023-02-05T17:35:34.180Z,6.60
2023-02-05T17:42:34.606Z,22.23
2023-02-05T17:45:16.231Z,16.85
2023-02-05T17:47:45.733Z,22.88
2023-02-05T17:51:14.157Z,35.25
2023-02-05T17:57:18.862Z,10.07
2023-02-05T17:59:53.882Z,14.13
2023-02-05T18:02:25.480Z,13.47
2023-02-05T18:04:53.918Z,8.15
2023-02-05T18:07:31.958Z,16.33
2023-02-05T18:10:26.020Z,20.83
2023-02-05T18:12:55.597Z,21.70
2023-02-05T18:16:20.061Z,23.60
2023-02-05T18:19:17.852Z,17.70
2023-02-05T18:21:47.359Z,16.30
2023-02-05T18:24:20.684Z,26.65
2023-02-05T18:27:04.335Z,21.42
2023-02-05T18:29:35.394Z,19.63
2023-02-05T18:32:05.130Z,23.35
2023-02-05T18:34:50.741Z,17.40
2023-02-05T18:38:11.144Z,29.07
2023-02-05T18:41:35.157Z,12.38
2023-02-05T18:44:08.726Z,8.60
2023-02-05T18:46:37.344Z,16.35
2023-02-05T18:49:10.884Z,11.23
2023-02-05T18:51:59.579Z,15.57
2023-02-05T18:55:19.299Z,13.52
2023-02-05T18:57:47.508Z,3.92
2023-02-05T19:00:22.275Z,13.25
2023-02-05T19:03:58.309Z,8.32
2023-02-05T19:07:39.737Z,10.63
2023-02-05T19:10:13.934Z,7.70
2023-02-05T19:12:42.171Z,14.18
2023-02-05T19:15:11.323Z,16.77
2023-02-05T19:17:49.516Z,12.00
2023-02-05T19:21:26.869Z,13.05
2023-02-05T19:24:05.616Z,12.60
2023-02-05T19:30:56.037Z,18.20
2023-02-05T19:33:27.592Z,12.85
2023-02-05T19:36:58.768Z,10.20
2023-02-05T19:43:39.454Z,13.98
2023-02-05T19:46:36.741Z,9.40
2023-02-05T19:53:18.596Z,10.00
2023-02-05T20:01:11.066Z,9.68
2023-02-05T20:04:30.912Z,11.23
2023-02-05T20:11:32.153Z,13.88
2023-02-05T20:14:51.881Z,19.50
2023-02-05T20:18:28.458Z,24.65
2023-02-05T20:22:05.916Z,24.70
2023-02-05T20:25:31.051Z,22.98
2023-02-05T20:32:24.967Z,35.35
2023-02-05T20:35:04.194Z,31.38
2023-02-05T20:38:03.478Z,32.40
2023-02-05T20:40:48.118Z,32.60
2023-02-05T20:43:17.041Z,38.00
2023-02-05T20:45:48.442Z,35.03
2023-02-05T20:48:47.519Z,35.08
2023-02-05T20:51:23.117Z,29.60
2023-02-05T20:56:30.972Z,27.40
2023-02-05T20:59:00.584Z,36.08
2023-02-05T21:01:59.639Z,32.25
2023-02-05T21:04:31.716Z,50.92
2023-02-05T21:07:04.633Z,27.77
2023-02-05T21:09:39.597Z,40.10
2023-02-05T21:12:11.753Z,34.20
2023-02-05T21:14:40.990Z,32.38
2023-02-05T21:17:10.593Z,34.65
2023-02-05T21:19:41.940Z,26.38
2023-02-05T21:22:13.221Z,27.42
2023-02-05T21:24:42.527Z,24.02
2023-02-05T21:27:27.239Z,34.15
2023-02-05T21:30:00.420Z,27.20
2023-02-05T21:32:35.643Z,24.60
2023-02-05T21:35:39.525Z,23.10
2023-02-05T21:38:09.729Z,26.02
2023-02-05T21:40:42.486Z,34.88
2023-02-05T21:43:17.334Z,26.10
2023-02-05T21:45:51.535Z,31.45
2023-02-05T21:48:26.693Z,33.83
2023-02-05T21:51:00.203Z,30.20
2023-02-05T21:53:29.472Z,28.98
2023-02-05T21:56:25.244Z,32.10
2023-02-05T21:58:53.720Z,25.40
2023-02-05T22:01:25.563Z,29.65
2023-02-05T22:04:01.024Z,41.95
2023-02-05T22:06:33.210Z,54.50
2023-02-05T22:09:04.328Z,53.38
2023-02-05T22:11:40.515Z,55.45
2023-02-05T22:14:13.564Z,46.95
2023-02-05T22:16:42.885Z,44.15
2023-02-05T22:19:12.198Z,50.50
2023-02-05T22:21:43.919Z,50.97
2023-02-05T22:24:16.203Z,60.80
2023-02-05T22:26:50.098Z,64.45
2023-02-05T22:29:20.081Z,51.05
2023-02-05T22:31:54.189Z,56.83
2023-02-05T22:34:23.952Z,62.53
2023-02-05T22:36:54.457Z,64.82
2023-02-05T22:39:22.531Z,65.03
2023-02-05T22:41:51.614Z,59.13
2023-02-05T22:44:19.758Z,61.38
2023-02-05T22:46:48.892Z,61.50
2023-02-05T22:49:17.000Z,68.40
2023-02-05T22:51:45.705Z,59.05
2023-02-05T22:54:22.106Z,57.42
2023-02-05T22:56:50.306Z,49.30
2023-02-05T22:59:18.429Z,51.28
2023-02-05T23:01:48.569Z,55.83
2023-02-05T23:04:18.765Z,50.35
2023-02-05T23:06:47.266Z,54.65
2023-02-05T23:09:17.673Z,51.85
2023-02-05T23:11:48.566Z,53.53
2023-02-05T23:14:18.491Z,45.72
2023-02-05T23:16:48.367Z,47.10
2023-02-05T23:19:20.587Z,43.80
2023-02-05T23:21:49.708Z,43.45
2023-02-05T23:24:21.418Z,45.60
2023-02-05T23:26:53.534Z,36.53
2023-02-05T23:29:22.019Z,46.20
2023-02-05T23:31:51.065Z,46.47
2023-02-05T23:34:19.211Z,46.05
2023-02-05T23:36:47.295Z,43.58
2023-02-05T23:39:15.463Z,45.20
2023-02-05T23:41:43.629Z,48.30
2023-02-05T23:44:16.210Z,45.92
2023-02-05T23:46:46.008Z,35.85
2023-02-05T23:49:16.353Z,29.42
2023-02-05T23:51:44.536Z,23.20
2023-02-05T23:54:12.964Z,23.70
2023-02-05T23:56:42.372Z,19.35
2023-02-05T23:59:11.949Z,27.45
